createdAt,value
2023-05-17T00:00:03.919Z,6.18
2023-05-17T00:02:33.275Z,6.47
2023-05-17T00:05:01.730Z,5.97
2023-05-17T00:07:30.897Z,6.60
2023-05-17T00:09:58.294Z,5.68
2023-05-17T00:12:25.672Z,5.35
2023-05-17T00:14:54.033Z,5.65
2023-05-17T00:17:21.549Z,5.60
2023-05-17T00:19:51.637Z,5.15
2023-05-17T00:22:18.981Z,5.00
2023-05-17T00:24:47.782Z,5.90
2023-05-17T00:27:15.032Z,5.28
2023-05-17T00:29:42.311Z,5.57
2023-05-17T00:32:09.610Z,5.63
2023-05-17T00:34:37.038Z,4.88
2023-05-17T00:37:04.765Z,5.00
2023-05-17T00:39:31.947Z,5.25
2023-05-17T00:42:01.461Z,5.33
2023-05-17T00:44:28.744Z,5.82
2023-05-17T00:46:55.961Z,4.85
2023-05-17T00:49:23.400Z,5.72
2023-05-17T00:51:51.099Z,4.88
2023-05-17T00:54:18.921Z,4.83
2023-05-17T00:56:46.436Z,3.85
2023-05-17T00:59:16.578Z,4.63
2023-05-17T01:01:45.017Z,4.50
2023-05-17T01:04:12.662Z,3.72
2023-05-17T01:06:40.138Z,2.60
2023-05-17T01:09:08.309Z,2.65
2023-05-17T01:11:42.799Z,2.47
2023-05-17T01:14:28.402Z,2.17
2023-05-17T01:16:59.230Z,2.72
2023-05-17T01:19:55.404Z,2.50
2023-05-17T01:22:33.360Z,2.30
2023-05-17T01:25:11.273Z,2.50
2023-05-17T01:27:43.632Z,2.45
2023-05-17T01:30:13.942Z,2.40
2023-05-17T01:32:45.415Z,2.33
2023-05-17T01:35:13.185Z,2.83
2023-05-17T01:37:40.591Z,2.60
2023-05-17T01:40:11.666Z,2.33
2023-05-17T01:42:43.182Z,2.95
2023-05-17T01:45:16.754Z,2.43
2023-05-17T01:47:50.866Z,2.63
2023-05-17T01:50:22.618Z,2.30
2023-05-17T01:52:53.641Z,1.95
2023-05-17T01:55:30.095Z,2.03
2023-05-17T01:58:00.564Z,2.20
2023-05-17T02:00:29.716Z,2.00
2023-05-17T02:02:57.187Z,1.70
2023-05-17T02:05:24.747Z,2.30
2023-05-17T02:07:51.994Z,1.80
2023-05-17T02:10:19.399Z,2.10
2023-05-17T02:12:46.836Z,1.70
2023-05-17T02:15:16.739Z,1.92
2023-05-17T02:17:45.123Z,1.60
2023-05-17T02:20:15.616Z,1.92
2023-05-17T02:22:43.008Z,1.47
2023-05-17T02:25:10.741Z,1.95
2023-05-17T02:27:38.127Z,1.27
2023-05-17T02:30:06.834Z,1.20
2023-05-17T02:32:35.601Z,1.05
2023-05-17T02:35:03.005Z,0.77
2023-05-17T02:37:30.454Z,1.38
2023-05-17T02:39:57.622Z,1.50
2023-05-17T02:42:24.934Z,1.98
2023-05-17T02:44:54.706Z,1.30
2023-05-17T02:47:21.954Z,1.40
2023-05-17T02:49:50.781Z,1.77
2023-05-17T02:52:18.047Z,1.25
2023-05-17T02:54:45.296Z,1.60
2023-05-17T02:57:12.530Z,1.90
2023-05-17T02:59:39.867Z,1.70
2023-05-17T03:02:07.253Z,1.23
2023-05-17T03:04:34.696Z,1.38
2023-05-17T03:07:05.836Z,1.48
2023-05-17T03:09:34.260Z,1.60
2023-05-17T03:12:01.546Z,1.33
2023-05-17T03:14:28.909Z,1.23
2023-05-17T03:16:56.141Z,1.33
2023-05-17T03:19:23.676Z,1.20
2023-05-17T03:21:51.878Z,1.55
2023-05-17T03:24:20.465Z,1.60
2023-05-17T03:26:47.672Z,1.40
2023-05-17T03:29:14.948Z,1.30
2023-05-17T03:31:42.159Z,1.05
2023-05-17T03:34:09.592Z,1.90
2023-05-17T03:36:39.411Z,1.80
2023-05-17T03:39:06.748Z,1.60
2023-05-17T03:41:35.436Z,1.60
2023-05-17T03:44:03.038Z,1.00
2023-05-17T03:46:30.207Z,1.60
2023-05-17T03:48:58.515Z,1.17
2023-05-17T03:51:25.996Z,1.08
2023-05-17T03:53:58.634Z,0.80
2023-05-17T03:56:25.902Z,0.90
2023-05-17T03:58:55.635Z,0.77
2023-05-17T04:01:23.009Z,0.70
2023-05-17T04:03:50.372Z,0.55
2023-05-17T04:06:17.592Z,0.60
2023-05-17T04:08:44.871Z,0.85
2023-05-17T04:11:14.181Z,1.08
2023-05-17T04:13:43.469Z,0.63
2023-05-17T04:16:12.130Z,1.00
2023-05-17T04:18:39.565Z,0.82
2023-05-17T04:21:07.414Z,1.77
2023-05-17T04:23:36.489Z,0.80
2023-05-17T04:26:04.991Z,0.90
2023-05-17T04:28:32.301Z,0.55
2023-05-17T04:30:59.607Z,0.80
2023-05-17T04:33:28.560Z,0.88
2023-05-17T04:35:56.923Z,0.93
2023-05-17T04:38:24.482Z,0.83
2023-05-17T04:40:51.904Z,0.90
2023-05-17T04:43:19.238Z,0.85
2023-05-17T04:45:46.812Z,0.90
2023-05-17T04:48:15.812Z,1.02
2023-05-17T04:50:47.452Z,0.87
2023-05-17T04:53:18.278Z,0.93
2023-05-17T04:55:46.100Z,0.90
2023-05-17T04:58:13.412Z,0.60
2023-05-17T05:00:40.838Z,1.02
2023-05-17T05:03:08.777Z,1.00
2023-05-17T05:05:36.198Z,1.02
2023-05-17T05:08:04.973Z,0.63
2023-05-17T05:10:35.121Z,1.25
2023-05-17T05:13:02.386Z,1.23
2023-05-17T05:15:29.792Z,1.00
2023-05-17T05:17:59.342Z,0.88
2023-05-17T05:20:27.930Z,1.27
2023-05-17T05:22:55.582Z,1.05
2023-05-17T05:25:25.793Z,1.00
2023-05-17T05:27:53.238Z,0.87
2023-05-17T05:30:23.341Z,1.20
2023-05-17T05:32:51.514Z,1.63
2023-05-17T05:35:19.466Z,1.20
2023-05-17T05:37:46.677Z,1.10
2023-05-17T05:40:15.510Z,1.23
2023-05-17T05:42:44.255Z,1.15
2023-05-17T05:45:16.439Z,1.40
2023-05-17T05:47:43.754Z,1.00
2023-05-17T05:50:14.036Z,1.38
2023-05-17T05:52:41.414Z,1.00
2023-05-17T05:55:09.663Z,1.02
2023-05-17T05:57:37.272Z,0.82
2023-05-17T06:00:07.497Z,0.82
2023-05-17T06:02:35.692Z,0.80
2023-05-17T06:05:05.897Z,1.53
2023-05-17T06:07:33.384Z,1.10
2023-05-17T06:10:02.501Z,2.00
2023-05-17T06:12:29.818Z,3.30
2023-05-17T06:14:57.174Z,1.50
2023-05-17T06:17:25.865Z,0.93
2023-05-17T06:19:53.739Z,2.72
2023-05-17T06:22:21.695Z,1.02
2023-05-17T06:24:49.673Z,1.45
2023-05-17T06:27:17.136Z,1.27
2023-05-17T06:29:44.470Z,1.23
2023-05-17T06:32:14.382Z,1.00
2023-05-17T06:34:43.147Z,1.00
2023-05-17T06:37:10.846Z,0.70
2023-05-17T06:39:55.919Z,1.30
2023-05-17T06:42:27.246Z,0.90
2023-05-17T06:44:54.740Z,1.05
2023-05-17T06:47:22.077Z,1.30
2023-05-17T06:49:58.303Z,1.25
2023-05-17T06:52:26.859Z,0.80
2023-05-17T06:54:54.061Z,1.30
2023-05-17T06:57:21.488Z,1.25
2023-05-17T06:59:55.391Z,1.00
2023-05-17T07:02:34.358Z,1.20
2023-05-17T07:05:09.746Z,0.90
2023-05-17T07:07:40.632Z,1.17
2023-05-17T07:10:08.535Z,1.10
2023-05-17T07:12:39.157Z,0.80
2023-05-17T07:15:08.500Z,0.88
2023-05-17T07:17:36.157Z,0.57
2023-05-17T07:20:06.455Z,1.43
2023-05-17T07:22:45.257Z,1.35
2023-05-17T07:25:29.207Z,0.90
2023-05-17T07:27:59.629Z,0.98
2023-05-17T07:30:27.050Z,0.82
2023-05-17T07:32:54.405Z,1.30
2023-05-17T07:35:23.138Z,0.77
2023-05-17T07:37:50.687Z,0.80
2023-05-17T07:40:18.532Z,1.15
2023-05-17T07:42:45.870Z,1.15
2023-05-17T07:45:13.290Z,0.80
2023-05-17T07:47:40.785Z,0.70
2023-05-17T07:50:28.641Z,0.90
2023-05-17T07:52:58.187Z,0.75
2023-05-17T07:55:25.629Z,0.80
2023-05-17T07:57:53.162Z,1.00
2023-05-17T08:00:23.075Z,0.90
2023-05-17T08:02:51.741Z,1.30
2023-05-17T08:05:19.131Z,0.73
2023-05-17T08:07:46.992Z,0.70
2023-05-17T08:10:15.886Z,0.90
2023-05-17T08:12:43.047Z,0.80
2023-05-17T08:15:11.246Z,1.02
2023-05-17T08:17:38.661Z,0.60
2023-05-17T08:20:08.150Z,0.80
2023-05-17T08:22:35.865Z,0.60
2023-05-17T08:25:04.764Z,0.90
2023-05-17T08:27:33.656Z,1.10
2023-05-17T08:30:01.029Z,0.65
2023-05-17T08:32:28.525Z,1.10
2023-05-17T08:34:56.209Z,0.90
2023-05-17T08:37:23.720Z,0.60
2023-05-17T08:39:51.692Z,0.93
2023-05-17T08:42:22.396Z,0.60
2023-05-17T08:44:51.915Z,0.55
2023-05-17T08:47:26.522Z,0.60
2023-05-17T08:49:57.959Z,1.15
2023-05-17T08:52:25.580Z,0.93
2023-05-17T08:54:53.038Z,0.40
2023-05-17T08:57:20.432Z,0.80
2023-05-17T08:59:48.117Z,0.77
2023-05-17T09:02:17.893Z,0.95
2023-05-17T09:04:45.799Z,0.75
2023-05-17T09:07:13.876Z,0.50
2023-05-17T09:09:42.959Z,0.70
2023-05-17T09:12:10.333Z,0.90
2023-05-17T09:14:37.611Z,0.70
2023-05-17T09:17:05.511Z,0.70
2023-05-17T09:19:34.545Z,0.98
2023-05-17T09:22:04.654Z,1.02
2023-05-17T09:24:32.312Z,0.90
2023-05-17T09:27:03.683Z,0.70
2023-05-17T09:29:33.427Z,1.10
2023-05-17T09:32:13.777Z,1.00
2023-05-17T09:34:43.171Z,1.23
2023-05-17T09:37:16.473Z,1.10
2023-05-17T09:39:45.097Z,1.00
2023-05-17T09:42:12.491Z,1.08
2023-05-17T09:44:50.632Z,1.00
2023-05-17T09:47:26.005Z,1.45
2023-05-17T09:49:56.696Z,1.20
2023-05-17T09:52:24.980Z,1.00
2023-05-17T09:54:53.969Z,1.60
2023-05-17T09:57:21.757Z,1.05
2023-05-17T09:59:50.021Z,0.90
2023-05-17T10:02:24.630Z,1.30
2023-05-17T10:04:56.308Z,1.10
2023-05-17T10:07:26.148Z,1.15
2023-05-17T10:09:54.855Z,1.40
2023-05-17T10:12:24.375Z,0.60
2023-05-17T10:14:56.577Z,1.00
2023-05-17T10:17:25.097Z,0.73
2023-05-17T10:19:54.850Z,1.02
2023-05-17T10:22:24.433Z,0.85
2023-05-17T10:24:52.316Z,1.00
2023-05-17T10:27:21.745Z,0.90
2023-05-17T10:29:55.738Z,0.60
2023-05-17T10:32:27.374Z,0.80
2023-05-17T10:35:09.480Z,1.00
2023-05-17T10:37:39.947Z,0.75
2023-05-17T10:40:13.612Z,0.60
2023-05-17T10:42:47.576Z,0.90
2023-05-17T10:45:15.525Z,0.60
2023-05-17T10:47:43.345Z,0.43
2023-05-17T10:50:15.353Z,0.40
2023-05-17T10:53:00.685Z,0.80
2023-05-17T10:55:41.466Z,0.93
2023-05-17T10:58:17.506Z,0.80
2023-05-17T11:00:49.220Z,0.40
2023-05-17T11:03:21.045Z,0.70
2023-05-17T11:06:24.346Z,0.60
2023-05-17T11:09:09.265Z,0.60
2023-05-17T11:11:36.819Z,0.80
2023-05-17T11:14:11.680Z,0.80
2023-05-17T11:16:42.557Z,0.93
2023-05-17T11:19:12.236Z,0.50
2023-05-17T11:21:48.255Z,0.40
2023-05-17T11:24:25.766Z,0.80
2023-05-17T11:26:57.314Z,0.50
2023-05-17T11:29:29.301Z,0.65
2023-05-17T11:31:56.721Z,0.40
2023-05-17T11:34:25.760Z,0.60
2023-05-17T11:37:02.303Z,0.70
2023-05-17T11:39:29.758Z,0.60
2023-05-17T11:42:00.099Z,0.55
2023-05-17T11:44:30.527Z,0.40
2023-05-17T11:47:03.113Z,0.40
2023-05-17T11:49:36.438Z,0.40
2023-05-17T11:52:07.185Z,0.50
2023-05-17T11:54:40.675Z,0.70
2023-05-17T11:57:09.640Z,0.80
2023-05-17T11:59:43.243Z,0.50
2023-05-17T12:02:10.582Z,0.90
2023-05-17T12:04:40.197Z,0.85
2023-05-17T12:07:11.038Z,0.60
2023-05-17T12:09:39.331Z,0.60
2023-05-17T12:12:07.059Z,0.50
2023-05-17T12:14:34.631Z,0.63
2023-05-17T12:17:04.211Z,0.50
2023-05-17T12:19:32.908Z,1.00
2023-05-17T12:22:08.665Z,0.60
2023-05-17T12:24:42.532Z,0.60
2023-05-17T12:27:10.777Z,0.80
2023-05-17T12:29:38.960Z,0.90
2023-05-17T12:32:10.811Z,0.85
2023-05-17T12:34:38.801Z,0.60
2023-05-17T12:37:10.876Z,0.70
2023-05-17T12:39:40.532Z,0.80
2023-05-17T12:42:22.544Z,0.75
2023-05-17T12:44:49.922Z,0.68
2023-05-17T12:47:20.310Z,1.00
2023-05-17T12:49:55.681Z,0.90
2023-05-17T12:52:23.254Z,1.00
2023-05-17T12:54:52.110Z,0.80
2023-05-17T12:57:20.473Z,1.13
2023-05-17T12:59:49.190Z,1.10
2023-05-17T13:02:19.468Z,1.05
2023-05-17T13:04:47.557Z,0.70
2023-05-17T13:07:22.845Z,0.88
2023-05-17T13:09:51.813Z,0.75
2023-05-17T13:12:21.369Z,0.60
2023-05-17T13:14:51.951Z,0.95
2023-05-17T13:17:24.395Z,1.40
2023-05-17T13:19:52.406Z,0.68
2023-05-17T13:22:20.317Z,1.00
2023-05-17T13:24:49.822Z,0.80
2023-05-17T13:27:18.492Z,1.30
2023-05-17T13:29:48.712Z,1.00
2023-05-17T13:32:16.122Z,1.10
2023-05-17T13:34:46.082Z,0.88
2023-05-17T13:37:13.362Z,0.80
2023-05-17T13:39:41.774Z,0.93
2023-05-17T13:42:13.990Z,1.10
2023-05-17T13:44:42.782Z,1.30
2023-05-17T13:47:11.893Z,1.77
2023-05-17T13:49:40.090Z,0.90
2023-05-17T13:52:10.295Z,0.85
2023-05-17T13:54:38.210Z,1.05
2023-05-17T13:57:06.304Z,0.90
2023-05-17T13:59:33.855Z,0.77
2023-05-17T14:02:02.532Z,0.90
2023-05-17T14:04:29.771Z,0.68
2023-05-17T14:06:57.094Z,1.08
2023-05-17T14:09:24.418Z,0.80
2023-05-17T14:11:51.797Z,1.08
2023-05-17T14:14:19.248Z,0.40
2023-05-17T14:16:46.822Z,0.80
2023-05-17T14:19:15.502Z,0.80
2023-05-17T14:21:42.924Z,0.70
2023-05-17T14:24:10.185Z,0.90
2023-05-17T14:26:37.450Z,0.77
2023-05-17T14:29:06.397Z,0.88
2023-05-17T14:31:33.655Z,1.48
2023-05-17T14:34:03.299Z,1.02
2023-05-17T14:36:34.086Z,0.85
2023-05-17T14:39:01.968Z,0.87
2023-05-17T14:41:29.147Z,0.77
2023-05-17T14:43:56.534Z,0.90
2023-05-17T14:46:24.025Z,1.15
2023-05-17T14:48:52.463Z,0.70
2023-05-17T14:51:22.893Z,1.00
2023-05-17T14:53:51.835Z,1.13
2023-05-17T14:56:19.098Z,1.38
2023-05-17T14:58:46.896Z,0.73
2023-05-17T15:01:15.467Z,0.52
2023-05-17T15:03:42.863Z,1.27
2023-05-17T15:06:11.803Z,1.00
2023-05-17T15:08:39.559Z,0.98
2023-05-17T15:11:09.862Z,1.00
2023-05-17T15:13:37.076Z,1.20
2023-05-17T15:16:04.625Z,1.17
2023-05-17T15:18:32.081Z,1.27
2023-05-17T15:20:59.305Z,1.10
2023-05-17T15:23:26.573Z,1.05
2023-05-17T15:25:53.915Z,1.48
2023-05-17T15:28:23.993Z,0.90
2023-05-17T15:31:00.683Z,0.85
2023-05-17T15:33:28.153Z,0.90
2023-05-17T15:35:57.186Z,1.45
2023-05-17T15:38:27.090Z,2.65
2023-05-17T15:41:04.069Z,2.20
2023-05-17T15:43:33.931Z,1.30
2023-05-17T15:46:01.418Z,1.13
2023-05-17T15:48:31.687Z,1.02
2023-05-17T15:50:59.029Z,1.00
2023-05-17T15:53:27.802Z,0.80
2023-05-17T15:55:55.784Z,0.90
2023-05-17T15:58:24.121Z,1.48
2023-05-17T16:00:52.892Z,1.23
2023-05-17T16:03:20.184Z,2.08
2023-05-17T16:05:47.511Z,1.20
2023-05-17T16:08:14.927Z,1.20
2023-05-17T16:10:42.382Z,1.40
2023-05-17T16:13:09.789Z,1.30
2023-05-17T16:15:38.659Z,1.90
2023-05-17T16:18:08.242Z,1.03
2023-05-17T16:20:36.245Z,1.70
2023-05-17T16:23:03.552Z,1.00
2023-05-17T16:25:31.370Z,1.65
2023-05-17T16:27:58.927Z,1.73
2023-05-17T16:30:26.620Z,1.10
2023-05-17T16:32:56.427Z,0.93
2023-05-17T16:35:26.857Z,0.95
2023-05-17T16:38:05.350Z,1.10
2023-05-17T16:40:44.805Z,0.98
2023-05-17T16:43:16.196Z,1.10
2023-05-17T16:45:44.268Z,1.20
2023-05-17T16:48:27.573Z,0.90
2023-05-17T16:51:08.119Z,1.10
2023-05-17T16:53:39.231Z,1.60
2023-05-17T16:56:06.849Z,1.50
2023-05-17T16:58:34.140Z,1.30
2023-05-17T17:01:01.627Z,1.17
2023-05-17T17:03:29.252Z,0.95
2023-05-17T17:05:56.865Z,1.10
2023-05-17T17:08:26.117Z,0.90
2023-05-17T17:10:53.383Z,1.05
2023-05-17T17:13:21.876Z,1.00
2023-05-17T17:15:51.136Z,0.80
2023-05-17T17:18:19.702Z,1.08
2023-05-17T17:20:47.126Z,1.07
2023-05-17T17:23:14.415Z,1.33
2023-05-17T17:25:43.224Z,1.38
2023-05-17T17:28:10.519Z,1.25
2023-05-17T17:30:37.860Z,0.90
2023-05-17T17:33:08.260Z,1.07
2023-05-17T17:35:35.875Z,0.90
2023-05-17T17:38:03.250Z,1.40
2023-05-17T17:40:30.790Z,1.23
2023-05-17T17:42:59.654Z,1.33
2023-05-17T17:45:27.033Z,1.00
2023-05-17T17:47:55.402Z,0.93
2023-05-17T17:50:25.242Z,0.98
2023-05-17T17:52:52.800Z,1.50
2023-05-17T17:55:20.990Z,2.03
2023-05-17T17:57:50.915Z,1.37
2023-05-17T18:00:20.526Z,1.40
2023-05-17T18:02:47.763Z,1.30
2023-05-17T18:05:15.260Z,1.48
2023-05-17T18:07:42.546Z,1.20
2023-05-17T18:10:10.511Z,1.60
2023-05-17T18:16:26.868Z,1.30
2023-05-17T18:19:00.736Z,0.82
2023-05-17T18:21:29.602Z,0.90
2023-05-17T18:23:56.936Z,1.27
2023-05-17T18:26:27.312Z,0.80
2023-05-17T18:29:23.402Z,1.27
2023-05-17T18:32:20.823Z,1.20
2023-05-17T18:34:52.761Z,1.73
2023-05-17T18:37:56.294Z,1.20
2023-05-17T18:40:55.813Z,1.17
2023-05-17T18:43:37.553Z,1.50
2023-05-17T18:46:23.283Z,1.38
2023-05-17T18:49:18.825Z,1.83
2023-05-17T19:00:38.920Z,1.10
2023-05-17T19:04:02.371Z,1.17
2023-05-17T19:07:21.610Z,1.02
2023-05-17T19:10:15.999Z,1.00
2023-05-17T19:12:58.931Z,1.17
2023-05-17T19:15:32.994Z,1.08
2023-05-17T19:18:10.866Z,1.20
2023-05-17T19:20:41.112Z,1.42
2023-05-17T19:23:50.991Z,1.70
2023-05-17T19:27:56.025Z,1.30
2023-05-17T19:31:29.798Z,1.30
2023-05-17T19:34:48.196Z,0.80
2023-05-17T19:37:39.678Z,1.30
2023-05-17T19:40:08.602Z,1.60
2023-05-17T19:42:38.906Z,1.67
2023-05-17T19:45:11.169Z,1.13
2023-05-17T19:47:38.503Z,1.42
2023-05-17T19:50:07.156Z,1.60
2023-05-17T19:52:34.817Z,0.87
2023-05-17T19:55:02.281Z,1.73
2023-05-17T19:57:29.805Z,1.33
2023-05-17T19:59:58.536Z,1.63
2023-05-17T20:02:26.451Z,1.80
2023-05-17T20:04:54.263Z,1.87
2023-05-17T20:07:26.081Z,1.67
2023-05-17T20:09:53.832Z,1.60
2023-05-17T20:12:24.359Z,1.20
2023-05-17T20:14:53.222Z,1.67
2023-05-17T20:17:21.860Z,1.20
2023-05-17T20:19:49.325Z,2.25
2023-05-17T20:22:16.875Z,0.77
2023-05-17T20:24:44.745Z,1.33
2023-05-17T20:27:13.061Z,1.38
2023-05-17T20:29:41.228Z,1.97
2023-05-17T20:32:09.216Z,1.52
2023-05-17T20:34:41.525Z,1.73
2023-05-17T20:37:08.733Z,2.03
2023-05-17T20:39:36.123Z,1.20
2023-05-17T20:42:03.635Z,1.23
2023-05-17T20:44:33.408Z,1.65
2023-05-17T20:47:01.625Z,1.33
2023-05-17T20:49:28.905Z,1.98
2023-05-17T20:52:02.609Z,1.58
2023-05-17T20:54:30.752Z,0.93
2023-05-17T20:56:58.249Z,1.83
2023-05-17T20:59:27.269Z,1.70
2023-05-17T21:01:54.552Z,1.50
2023-05-17T21:04:25.214Z,1.67
2023-05-17T21:06:52.611Z,1.60
2023-05-17T21:09:21.563Z,2.25
2023-05-17T21:11:52.622Z,1.90
2023-05-17T21:14:19.845Z,1.90
2023-05-17T21:16:47.111Z,2.03
2023-05-17T21:19:15.072Z,2.00
2023-05-17T21:21:42.447Z,1.92
2023-05-17T21:24:11.878Z,1.98
2023-05-17T21:26:43.318Z,2.28
2023-05-17T21:29:10.663Z,2.10
2023-05-17T21:31:38.189Z,1.73
2023-05-17T21:34:05.709Z,1.77
2023-05-17T21:36:33.033Z,1.77
2023-05-17T21:39:00.355Z,1.42
2023-05-17T21:41:27.775Z,2.05
2023-05-17T21:43:58.718Z,3.00
2023-05-17T21:46:26.179Z,1.65
2023-05-17T21:48:53.715Z,2.10
2023-05-17T21:51:33.905Z,2.30
2023-05-17T21:54:01.161Z,2.38
2023-05-17T21:56:28.426Z,1.30
2023-05-17T21:58:57.129Z,2.47
2023-05-17T22:01:24.495Z,2.53
2023-05-17T22:03:55.652Z,2.10
2023-05-17T22:06:23.616Z,2.05
2023-05-17T22:08:50.869Z,2.30
2023-05-17T22:11:22.996Z,1.42
2023-05-17T22:13:50.654Z,2.38
2023-05-17T22:16:22.454Z,3.58
2023-05-17T22:18:57.281Z,2.40
2023-05-17T22:21:24.589Z,2.77
2023-05-17T22:23:54.017Z,3.70
2023-05-17T22:26:23.790Z,3.40
2023-05-17T22:28:52.379Z,2.88
2023-05-17T22:31:21.091Z,3.35
2023-05-17T22:33:48.780Z,3.60
2023-05-17T22:36:19.178Z,3.78
2023-05-17T22:38:46.810Z,3.28
2023-05-17T22:41:14.009Z,3.72
2023-05-17T22:43:41.931Z,3.20
2023-05-17T22:46:09.110Z,2.37
2023-05-17T22:48:38.599Z,3.17
2023-05-17T22:51:06.045Z,3.53
2023-05-17T22:53:37.903Z,3.10
2023-05-17T22:56:06.497Z,3.50
2023-05-17T22:58:33.849Z,3.07
2023-05-17T23:01:01.227Z,4.10
2023-05-17T23:03:28.798Z,3.33
2023-05-17T23:06:03.059Z,2.65
2023-05-17T23:08:30.744Z,3.75
2023-05-17T23:11:01.875Z,2.70
2023-05-17T23:13:29.607Z,3.13
2023-05-17T23:15:57.164Z,3.40
2023-05-17T23:18:28.333Z,3.00
2023-05-17T23:20:59.147Z,2.95
2023-05-17T23:23:30.018Z,2.93
2023-05-17T23:25:57.770Z,3.80
2023-05-17T23:28:25.439Z,3.85
2023-05-17T23:30:54.620Z,4.68
2023-05-17T23:33:21.865Z,2.72
2023-05-17T23:35:49.048Z,3.53
2023-05-17T23:38:16.526Z,3.67
2023-05-17T23:40:45.278Z,2.83
2023-05-17T23:43:12.476Z,3.65
2023-05-17T23:45:39.690Z,3.83
2023-05-17T23:48:09.929Z,2.73
2023-05-17T23:50:37.638Z,3.45
2023-05-17T23:53:05.062Z,2.60
2023-05-17T23:55:32.278Z,3.25
2023-05-17T23:58:01.189Z,3.03
